sensor_id;sensor_type;location;lat;lon;timestamp;temperature;humidity
76967;DHT22;65904;52.278;20.972;2023-04-03T00:02:31;2.10;99.90
76967;DHT22;65904;52.278;20.972;2023-04-03T00:05:17;2.00;99.90
76967;DHT22;65904;52.278;20.972;2023-04-03T00:08:04;1.90;99.90
76967;DHT22;65904;52.278;20.972;2023-04-03T00:10:52;1.80;99.90
76967;DHT22;65904;52.278;20.972;2023-04-03T00:13:40;1.70;99.90
76967;DHT22;65904;52.278;20.972;2023-04-03T00:16:26;1.60;99.90
76967;DHT22;65904;52.278;20.972;2023-04-03T00:19:13;1.60;99.90
76967;DHT22;65904;52.278;20.972;2023-04-03T00:21:59;1.60;99.90
76967;DHT22;65904;52.278;20.972;2023-04-03T00:24:45;1.50;99.90
76967;DHT22;65904;52.278;20.972;2023-04-03T00:27:32;1.50;99.90
76967;DHT22;65904;52.278;20.972;2023-04-03T00:30:21;1.50;99.90
76967;DHT22;65904;52.278;20.972;2023-04-03T00:33:08;1.40;99.90
76967;DHT22;65904;52.278;20.972;2023-04-03T00:35:55;1.30;99.90
76967;DHT22;65904;52.278;20.972;2023-04-03T00:38:41;1.30;99.90
76967;DHT22;65904;52.278;20.972;2023-04-03T00:41:28;1.20;99.90
76967;DHT22;65904;52.278;20.972;2023-04-03T00:44:22;1.10;99.90
76967;DHT22;65904;52.278;20.972;2023-04-03T00:47:30;1.10;99.90
76967;DHT22;65904;52.278;20.972;2023-04-03T00:50:17;1.10;99.90
76967;DHT22;65904;52.278;20.972;2023-04-03T00:53:04;1.00;99.90
76967;DHT22;65904;52.278;20.972;2023-04-03T00:55:51;1.00;99.90
76967;DHT22;65904;52.278;20.972;2023-04-03T00:58:42;1.00;99.90
76967;DHT22;65904;52.278;20.972;2023-04-03T01:01:30;0.90;99.90
76967;DHT22;65904;52.278;20.972;2023-04-03T01:04:28;0.90;99.90
76967;DHT22;65904;52.278;20.972;2023-04-03T01:07:18;0.90;99.90
76967;DHT22;65904;52.278;20.972;2023-04-03T01:10:08;0.80;99.90
76967;DHT22;65904;52.278;20.972;2023-04-03T01:12:55;0.80;99.90
76967;DHT22;65904;52.278;20.972;2023-04-03T01:15:42;0.80;99.90
76967;DHT22;65904;52.278;20.972;2023-04-03T01:18:28;0.70;99.90
76967;DHT22;65904;52.278;20.972;2023-04-03T01:24:34;0.70;99.90
76967;DHT22;65904;52.278;20.972;2023-04-03T01:27:22;0.70;99.90
76967;DHT22;65904;52.278;20.972;2023-04-03T01:30:09;0.60;99.90
76967;DHT22;65904;52.278;20.972;2023-04-03T01:32:58;0.60;99.90
76967;DHT22;65904;52.278;20.972;2023-04-03T01:35:44;0.50;99.90
76967;DHT22;65904;52.278;20.972;2023-04-03T01:38:31;0.50;99.90
76967;DHT22;65904;52.278;20.972;2023-04-03T01:41:18;0.50;99.90
76967;DHT22;65904;52.278;20.972;2023-04-03T01:44:06;0.40;99.90
76967;DHT22;65904;52.278;20.972;2023-04-03T01:46:52;0.40;99.90
76967;DHT22;65904;52.278;20.972;2023-04-03T01:49:41;0.40;99.90
76967;DHT22;65904;52.278;20.972;2023-04-03T01:52:27;0.30;99.90
76967;DHT22;65904;52.278;20.972;2023-04-03T01:55:14;0.30;99.90
76967;DHT22;65904;52.278;20.972;2023-04-03T01:58:00;0.20;99.90
76967;DHT22;65904;52.278;20.972;2023-04-03T02:00:46;0.30;99.90
76967;DHT22;65904;52.278;20.972;2023-04-03T02:03:32;0.20;99.90
76967;DHT22;65904;52.278;20.972;2023-04-03T02:06:20;0.20;99.90
76967;DHT22;65904;52.278;20.972;2023-04-03T02:09:06;0.10;99.90
76967;DHT22;65904;52.278;20.972;2023-04-03T02:11:53;0.10;99.90
76967;DHT22;65904;52.278;20.972;2023-04-03T02:14:39;0.10;99.90
76967;DHT22;65904;52.278;20.972;2023-04-03T02:17:30;0.10;99.90
76967;DHT22;65904;52.278;20.972;2023-04-03T02:20:16;0.10;99.90
76967;DHT22;65904;52.278;20.972;2023-04-03T02:23:05;0.00;99.90
76967;DHT22;65904;52.278;20.972;2023-04-03T02:25:51;-0.10;99.90
76967;DHT22;65904;52.278;20.972;2023-04-03T02:28:37;-0.10;99.90
76967;DHT22;65904;52.278;20.972;2023-04-03T02:31:23;-0.10;99.90
76967;DHT22;65904;52.278;20.972;2023-04-03T02:34:10;-0.10;99.90
76967;DHT22;65904;52.278;20.972;2023-04-03T02:36:57;-0.10;99.90
76967;DHT22;65904;52.278;20.972;2023-04-03T02:39:45;-0.10;99.90
76967;DHT22;65904;52.278;20.972;2023-04-03T02:42:31;-0.20;99.90
76967;DHT22;65904;52.278;20.972;2023-04-03T02:45:17;-0.20;99.90
76967;DHT22;65904;52.278;20.972;2023-04-03T02:48:04;-0.30;99.90
76967;DHT22;65904;52.278;20.972;2023-04-03T02:50:51;-0.30;99.90
76967;DHT22;65904;52.278;20.972;2023-04-03T02:53:37;-0.30;99.90
76967;DHT22;65904;52.278;20.972;2023-04-03T02:56:30;-0.30;99.90
76967;DHT22;65904;52.278;20.972;2023-04-03T02:59:16;-0.40;99.90
76967;DHT22;65904;52.278;20.972;2023-04-03T03:02:03;-0.40;99.90
76967;DHT22;65904;52.278;20.972;2023-04-03T03:04:49;-0.40;99.90
76967;DHT22;65904;52.278;20.972;2023-04-03T03:07:36;-0.40;99.90
76967;DHT22;65904;52.278;20.972;2023-04-03T03:10:22;-0.40;99.90
76967;DHT22;65904;52.278;20.972;2023-04-03T03:13:10;-0.40;99.90
76967;DHT22;65904;52.278;20.972;2023-04-03T03:15:57;-0.50;99.90
76967;DHT22;65904;52.278;20.972;2023-04-03T03:18:43;-0.50;99.90
76967;DHT22;65904;52.278;20.972;2023-04-03T03:21:29;-0.50;99.90
76967;DHT22;65904;52.278;20.972;2023-04-03T03:24:16;-0.50;99.90
76967;DHT22;65904;52.278;20.972;2023-04-03T03:27:02;-0.50;99.90
76967;DHT22;65904;52.278;20.972;2023-04-03T03:29:50;-0.60;99.90
76967;DHT22;65904;52.278;20.972;2023-04-03T03:32:36;-0.60;99.90
76967;DHT22;65904;52.278;20.972;2023-04-03T03:35:22;-0.60;99.90
76967;DHT22;65904;52.278;20.972;2023-04-03T03:38:09;-0.70;99.90
76967;DHT22;65904;52.278;20.972;2023-04-03T03:40:56;-0.70;99.90
76967;DHT22;65904;52.278;20.972;2023-04-03T03:43:42;-0.70;99.90
76967;DHT22;65904;52.278;20.972;2023-04-03T03:46:31;-0.80;99.90
76967;DHT22;65904;52.278;20.972;2023-04-03T03:49:17;-0.80;99.90
76967;DHT22;65904;52.278;20.972;2023-04-03T03:52:04;-0.70;99.90
76967;DHT22;65904;52.278;20.972;2023-04-03T03:54:50;-0.80;99.90
76967;DHT22;65904;52.278;20.972;2023-04-03T03:57:37;-0.80;99.90
76967;DHT22;65904;52.278;20.972;2023-04-03T04:00:24;-0.80;99.90
76967;DHT22;65904;52.278;20.972;2023-04-03T04:03:15;-0.90;99.90
76967;DHT22;65904;52.278;20.972;2023-04-03T04:06:04;-0.90;99.90
76967;DHT22;65904;52.278;20.972;2023-04-03T04:08:51;-0.80;99.90
76967;DHT22;65904;52.278;20.972;2023-04-03T04:11:37;-0.80;99.90
76967;DHT22;65904;52.278;20.972;2023-04-03T04:14:24;-0.80;99.90
76967;DHT22;65904;52.278;20.972;2023-04-03T04:17:12;-0.90;99.90
76967;DHT22;65904;52.278;20.972;2023-04-03T04:20:00;-0.90;99.90
76967;DHT22;65904;52.278;20.972;2023-04-03T04:22:47;-0.90;99.90
76967;DHT22;65904;52.278;20.972;2023-04-03T04:25:34;-0.90;99.90
76967;DHT22;65904;52.278;20.972;2023-04-03T04:28:20;-0.90;99.90
76967;DHT22;65904;52.278;20.972;2023-04-03T04:31:09;-1.00;99.90
76967;DHT22;65904;52.278;20.972;2023-04-03T04:33:55;-1.00;99.90
76967;DHT22;65904;52.278;20.972;2023-04-03T04:36:43;-1.00;99.90
76967;DHT22;65904;52.278;20.972;2023-04-03T04:39:30;-0.90;99.90
76967;DHT22;65904;52.278;20.972;2023-04-03T04:42:17;-0.90;99.90
76967;DHT22;65904;52.278;20.972;2023-04-03T04:45:07;-0.90;99.90
76967;DHT22;65904;52.278;20.972;2023-04-03T04:47:55;-0.80;99.90
76967;DHT22;65904;52.278;20.972;2023-04-03T04:50:43;-0.70;99.90
76967;DHT22;65904;52.278;20.972;2023-04-03T04:53:31;-0.70;99.90
76967;DHT22;65904;52.278;20.972;2023-04-03T04:56:17;-0.70;99.90
76967;DHT22;65904;52.278;20.972;2023-04-03T04:59:05;-0.60;99.90
76967;DHT22;65904;52.278;20.972;2023-04-03T05:01:51;-0.60;99.90
76967;DHT22;65904;52.278;20.972;2023-04-03T05:04:37;-0.50;99.90
76967;DHT22;65904;52.278;20.972;2023-04-03T05:07:29;-0.40;99.90
76967;DHT22;65904;52.278;20.972;2023-04-03T05:10:18;-0.40;99.90
76967;DHT22;65904;52.278;20.972;2023-04-03T05:13:05;-0.30;99.90
76967;DHT22;65904;52.278;20.972;2023-04-03T05:15:52;-0.20;99.90
76967;DHT22;65904;52.278;20.972;2023-04-03T05:18:38;-0.10;99.90
76967;DHT22;65904;52.278;20.972;2023-04-03T05:21:28;-0.10;99.90
76967;DHT22;65904;52.278;20.972;2023-04-03T05:24:17;0.00;99.90
76967;DHT22;65904;52.278;20.972;2023-04-03T05:27:05;0.00;99.90
76967;DHT22;65904;52.278;20.972;2023-04-03T05:29:56;0.10;99.90
76967;DHT22;65904;52.278;20.972;2023-04-03T05:32:43;0.20;99.90
76967;DHT22;65904;52.278;20.972;2023-04-03T05:35:53;0.20;99.90
76967;DHT22;65904;52.278;20.972;2023-04-03T05:38:44;0.30;99.90
76967;DHT22;65904;52.278;20.972;2023-04-03T05:41:30;0.40;99.90
76967;DHT22;65904;52.278;20.972;2023-04-03T05:44:18;0.50;99.90
76967;DHT22;65904;52.278;20.972;2023-04-03T05:47:05;0.50;99.90
76967;DHT22;65904;52.278;20.972;2023-04-03T05:49:52;0.60;99.90
76967;DHT22;65904;52.278;20.972;2023-04-03T05:52:42;0.50;99.90
76967;DHT22;65904;52.278;20.972;2023-04-03T05:55:30;0.50;99.90
76967;DHT22;65904;52.278;20.972;2023-04-03T05:58:17;0.40;99.90
76967;DHT22;65904;52.278;20.972;2023-04-03T06:01:07;0.40;99.90
76967;DHT22;65904;52.278;20.972;2023-04-03T06:03:54;0.50;99.90
76967;DHT22;65904;52.278;20.972;2023-04-03T06:06:45;0.50;99.90
76967;DHT22;65904;52.278;20.972;2023-04-03T06:09:32;0.60;99.90
76967;DHT22;65904;52.278;20.972;2023-04-03T06:12:18;0.60;99.90
76967;DHT22;65904;52.278;20.972;2023-04-03T06:15:06;0.60;99.90
76967;DHT22;65904;52.278;20.972;2023-04-03T06:17:56;0.70;99.90
76967;DHT22;65904;52.278;20.972;2023-04-03T06:20:42;0.60;99.90
76967;DHT22;65904;52.278;20.972;2023-04-03T06:23:28;0.60;99.90
76967;DHT22;65904;52.278;20.972;2023-04-03T06:26:15;0.60;99.90
76967;DHT22;65904;52.278;20.972;2023-04-03T06:29:01;0.60;99.90
76967;DHT22;65904;52.278;20.972;2023-04-03T06:31:48;0.70;99.90
76967;DHT22;65904;52.278;20.972;2023-04-03T06:34:36;0.80;99.90
76967;DHT22;65904;52.278;20.972;2023-04-03T06:37:23;0.80;99.90
76967;DHT22;65904;52.278;20.972;2023-04-03T06:40:16;0.90;99.90
76967;DHT22;65904;52.278;20.972;2023-04-03T06:43:04;0.90;99.90
76967;DHT22;65904;52.278;20.972;2023-04-03T06:45:51;1.00;99.90
76967;DHT22;65904;52.278;20.972;2023-04-03T06:48:37;1.10;99.90
76967;DHT22;65904;52.278;20.972;2023-04-03T06:51:26;1.30;99.90
76967;DHT22;65904;52.278;20.972;2023-04-03T06:54:12;1.40;99.90
76967;DHT22;65904;52.278;20.972;2023-04-03T06:57:00;1.50;99.90
76967;DHT22;65904;52.278;20.972;2023-04-03T06:59:46;1.60;99.90
76967;DHT22;65904;52.278;20.972;2023-04-03T07:02:32;1.80;99.90
76967;DHT22;65904;52.278;20.972;2023-04-03T07:05:19;1.90;99.90
76967;DHT22;65904;52.278;20.972;2023-04-03T07:08:07;1.90;99.90
76967;DHT22;65904;52.278;20.972;2023-04-03T07:10:53;2.00;99.90
76967;DHT22;65904;52.278;20.972;2023-04-03T07:13:39;2.00;99.90
76967;DHT22;65904;52.278;20.972;2023-04-03T07:16:25;2.20;99.90
76967;DHT22;65904;52.278;20.972;2023-04-03T07:19:12;2.30;99.90
76967;DHT22;65904;52.278;20.972;2023-04-03T07:21:59;2.30;99.90
76967;DHT22;65904;52.278;20.972;2023-04-03T07:24:47;2.40;99.90
76967;DHT22;65904;52.278;20.972;2023-04-03T07:27:33;2.50;99.90
76967;DHT22;65904;52.278;20.972;2023-04-03T07:30:20;2.60;99.90
76967;DHT22;65904;52.278;20.972;2023-04-03T07:33:07;2.70;99.90
76967;DHT22;65904;52.278;20.972;2023-04-03T07:35:53;2.80;99.90
76967;DHT22;65904;52.278;20.972;2023-04-03T07:38:39;2.90;99.90
76967;DHT22;65904;52.278;20.972;2023-04-03T07:41:27;3.00;99.90
76967;DHT22;65904;52.278;20.972;2023-04-03T07:44:13;3.00;99.50
76967;DHT22;65904;52.278;20.972;2023-04-03T07:47:00;3.10;99.90
76967;DHT22;65904;52.278;20.972;2023-04-03T07:49:46;3.20;99.90
76967;DHT22;65904;52.278;20.972;2023-04-03T07:52:33;3.40;99.90
76967;DHT22;65904;52.278;20.972;2023-04-03T07:55:19;3.50;99.60
76967;DHT22;65904;52.278;20.972;2023-04-03T07:58:06;3.60;99.90
76967;DHT22;65904;52.278;20.972;2023-04-03T08:00:52;3.80;99.20
76967;DHT22;65904;52.278;20.972;2023-04-03T08:03:39;3.90;97.60
76967;DHT22;65904;52.278;20.972;2023-04-03T08:06:25;3.80;97.20
76967;DHT22;65904;52.278;20.972;2023-04-03T08:09:12;3.80;98.20
76967;DHT22;65904;52.278;20.972;2023-04-03T08:11:59;3.90;97.50
76967;DHT22;65904;52.278;20.972;2023-04-03T08:14:47;4.20;97.80
76967;DHT22;65904;52.278;20.972;2023-04-03T08:17:33;4.30;95.00
76967;DHT22;65904;52.278;20.972;2023-04-03T08:20:19;4.70;96.70
76967;DHT22;65904;52.278;20.972;2023-04-03T08:23:05;5.60;95.10
76967;DHT22;65904;52.278;20.972;2023-04-03T08:25:52;6.00;90.80
76967;DHT22;65904;52.278;20.972;2023-04-03T08:28:38;6.60;90.50
76967;DHT22;65904;52.278;20.972;2023-04-03T08:31:27;7.40;89.80
76967;DHT22;65904;52.278;20.972;2023-04-03T08:34:13;7.80;87.20
76967;DHT22;65904;52.278;20.972;2023-04-03T08:36:59;8.30;86.10
76967;DHT22;65904;52.278;20.972;2023-04-03T08:39:45;8.90;81.80
76967;DHT22;65904;52.278;20.972;2023-04-03T08:42:41;9.30;75.50
76967;DHT22;65904;52.278;20.972;2023-04-03T08:45:42;9.20;84.80
76967;DHT22;65904;52.278;20.972;2023-04-03T08:48:33;8.80;75.00
76967;DHT22;65904;52.278;20.972;2023-04-03T08:51:21;8.80;73.30
76967;DHT22;65904;52.278;20.972;2023-04-03T08:54:22;9.70;75.10
76967;DHT22;65904;52.278;20.972;2023-04-03T08:57:11;10.80;58.60
76967;DHT22;65904;52.278;20.972;2023-04-03T09:00:01;11.30;55.10
76967;DHT22;65904;52.278;20.972;2023-04-03T09:02:50;11.60;46.70
76967;DHT22;65904;52.278;20.972;2023-04-03T09:05:43;11.30;49.20
76967;DHT22;65904;52.278;20.972;2023-04-03T09:08:33;12.20;53.20
76967;DHT22;65904;52.278;20.972;2023-04-03T09:11:25;13.20;48.60
76967;DHT22;65904;52.278;20.972;2023-04-03T09:14:16;13.90;44.50
76967;DHT22;65904;52.278;20.972;2023-04-03T09:17:12;13.80;43.90
76967;DHT22;65904;52.278;20.972;2023-04-03T09:20:07;13.90;42.90
76967;DHT22;65904;52.278;20.972;2023-04-03T09:22:57;13.90;42.90
76967;DHT22;65904;52.278;20.972;2023-04-03T09:25:43;14.20;42.10
76967;DHT22;65904;52.278;20.972;2023-04-03T09:28:32;13.20;43.20
76967;DHT22;65904;52.278;20.972;2023-04-03T09:31:22;12.40;42.50
76967;DHT22;65904;52.278;20.972;2023-04-03T09:34:22;12.60;42.00
76967;DHT22;65904;52.278;20.972;2023-04-03T09:37:08;14.00;41.70
76967;DHT22;65904;52.278;20.972;2023-04-03T09:39:56;15.20;37.50
76967;DHT22;65904;52.278;20.972;2023-04-03T09:42:43;16.30;38.70
76967;DHT22;65904;52.278;20.972;2023-04-03T09:45:31;16.60;38.40
76967;DHT22;65904;52.278;20.972;2023-04-03T09:48:19;16.80;36.60
76967;DHT22;65904;52.278;20.972;2023-04-03T09:51:15;15.50;36.10
76967;DHT22;65904;52.278;20.972;2023-04-03T09:57:32;15.00;35.90
76967;DHT22;65904;52.278;20.972;2023-04-03T10:00:23;15.20;38.10
76967;DHT22;65904;52.278;20.972;2023-04-03T10:03:24;16.10;36.60
76967;DHT22;65904;52.278;20.972;2023-04-03T10:06:23;16.90;33.20
76967;DHT22;65904;52.278;20.972;2023-04-03T10:09:19;17.00;33.80
76967;DHT22;65904;52.278;20.972;2023-04-03T10:12:06;17.60;36.10
76967;DHT22;65904;52.278;20.972;2023-04-03T10:14:57;17.30;32.40
76967;DHT22;65904;52.278;20.972;2023-04-03T10:17:50;16.10;32.40
76967;DHT22;65904;52.278;20.972;2023-04-03T10:20:44;15.80;34.80
76967;DHT22;65904;52.278;20.972;2023-04-03T10:23:36;15.60;34.10
76967;DHT22;65904;52.278;20.972;2023-04-03T10:26:32;14.70;35.70
76967;DHT22;65904;52.278;20.972;2023-04-03T10:29:35;14.80;35.50
76967;DHT22;65904;52.278;20.972;2023-04-03T10:32:43;15.30;36.50
76967;DHT22;65904;52.278;20.972;2023-04-03T10:35:39;16.70;34.70
76967;DHT22;65904;52.278;20.972;2023-04-03T10:38:36;17.80;33.30
76967;DHT22;65904;52.278;20.972;2023-04-03T10:41:34;18.70;29.60
76967;DHT22;65904;52.278;20.972;2023-04-03T10:44:32;18.40;30.60
76967;DHT22;65904;52.278;20.972;2023-04-03T10:47:26;18.90;31.10
76967;DHT22;65904;52.278;20.972;2023-04-03T10:50:36;18.80;29.30
76967;DHT22;65904;52.278;20.972;2023-04-03T10:53:31;16.40;30.20
76967;DHT22;65904;52.278;20.972;2023-04-03T10:56:30;14.30;33.80
76967;DHT22;65904;52.278;20.972;2023-04-03T10:59:23;13.80;35.00
76967;DHT22;65904;52.278;20.972;2023-04-03T11:02:16;13.30;38.60
76967;DHT22;65904;52.278;20.972;2023-04-03T11:05:07;13.10;37.90
76967;DHT22;65904;52.278;20.972;2023-04-03T11:08:04;11.60;38.10
76967;DHT22;65904;52.278;20.972;2023-04-03T11:10:54;9.60;40.80
76967;DHT22;65904;52.278;20.972;2023-04-03T11:13:46;10.20;45.10
76967;DHT22;65904;52.278;20.972;2023-04-03T11:16:38;12.90;43.80
76967;DHT22;65904;52.278;20.972;2023-04-03T11:19:34;15.50;37.60
76967;DHT22;65904;52.278;20.972;2023-04-03T11:22:24;16.60;32.40
76967;DHT22;65904;52.278;20.972;2023-04-03T11:25:20;15.90;34.00
76967;DHT22;65904;52.278;20.972;2023-04-03T11:28:12;14.60;34.60
76967;DHT22;65904;52.278;20.972;2023-04-03T11:31:10;13.00;36.20
76967;DHT22;65904;52.278;20.972;2023-04-03T11:34:08;11.80;37.90
76967;DHT22;65904;52.278;20.972;2023-04-03T11:37:01;13.80;40.70
76967;DHT22;65904;52.278;20.972;2023-04-03T11:39:54;14.60;36.90
76967;DHT22;65904;52.278;20.972;2023-04-03T11:42:46;14.50;34.20
76967;DHT22;65904;52.278;20.972;2023-04-03T11:45:38;15.20;33.90
76967;DHT22;65904;52.278;20.972;2023-04-03T11:48:50;16.70;34.70
76967;DHT22;65904;52.278;20.972;2023-04-03T11:51:41;17.40;30.50
76967;DHT22;65904;52.278;20.972;2023-04-03T11:54:48;16.30;30.50
76967;DHT22;65904;52.278;20.972;2023-04-03T11:58:02;13.60;33.70
76967;DHT22;65904;52.278;20.972;2023-04-03T12:01:10;12.40;36.60
76967;DHT22;65904;52.278;20.972;2023-04-03T12:04:09;10.80;40.20
76967;DHT22;65904;52.278;20.972;2023-04-03T12:07:12;11.10;44.20
76967;DHT22;65904;52.278;20.972;2023-04-03T12:09:59;12.10;43.30
76967;DHT22;65904;52.278;20.972;2023-04-03T12:12:59;12.10;39.30
76967;DHT22;65904;52.278;20.972;2023-04-03T12:15:52;11.30;39.30
76967;DHT22;65904;52.278;20.972;2023-04-03T12:18:43;13.00;40.80
76967;DHT22;65904;52.278;20.972;2023-04-03T12:24:52;15.80;33.80
76967;DHT22;65904;52.278;20.972;2023-04-03T12:27:40;14.50;33.20
76967;DHT22;65904;52.278;20.972;2023-04-03T12:30:30;13.30;35.20
76967;DHT22;65904;52.278;20.972;2023-04-03T12:33:27;14.90;36.50
76967;DHT22;65904;52.278;20.972;2023-04-03T12:36:23;16.80;33.20
76967;DHT22;65904;52.278;20.972;2023-04-03T12:39:41;17.50;30.60
76967;DHT22;65904;52.278;20.972;2023-04-03T12:46:07;14.10;33.60
76967;DHT22;65904;52.278;20.972;2023-04-03T12:48:58;12.90;35.20
76967;DHT22;65904;52.278;20.972;2023-04-03T12:51:46;13.50;37.60
76967;DHT22;65904;52.278;20.972;2023-04-03T12:54:36;14.70;33.40
76967;DHT22;65904;52.278;20.972;2023-04-03T12:57:24;16.70;31.80
76967;DHT22;65904;52.278;20.972;2023-04-03T13:00:35;17.90;30.90
76967;DHT22;65904;52.278;20.972;2023-04-03T13:03:25;19.60;29.00
76967;DHT22;65904;52.278;20.972;2023-04-03T13:06:17;18.30;28.40
76967;DHT22;65904;52.278;20.972;2023-04-03T13:09:06;16.60;30.00
76967;DHT22;65904;52.278;20.972;2023-04-03T13:11:57;14.10;32.10
76967;DHT22;65904;52.278;20.972;2023-04-03T13:14:52;12.10;34.90
76967;DHT22;65904;52.278;20.972;2023-04-03T13:17:40;11.10;40.10
76967;DHT22;65904;52.278;20.972;2023-04-03T13:20:30;10.10;40.80
76967;DHT22;65904;52.278;20.972;2023-04-03T13:23:19;11.40;41.20
76967;DHT22;65904;52.278;20.972;2023-04-03T13:26:07;13.40;37.70
76967;DHT22;65904;52.278;20.972;2023-04-03T13:28:54;13.10;36.20
76967;DHT22;65904;52.278;20.972;2023-04-03T13:31:43;12.20;37.40
76967;DHT22;65904;52.278;20.972;2023-04-03T13:34:36;10.80;39.60
76967;DHT22;65904;52.278;20.972;2023-04-03T13:37:27;9.60;43.80
76967;DHT22;65904;52.278;20.972;2023-04-03T13:40:14;9.40;48.10
76967;DHT22;65904;52.278;20.972;2023-04-03T13:43:04;9.00;46.60
76967;DHT22;65904;52.278;20.972;2023-04-03T13:46:01;9.90;47.20
76967;DHT22;65904;52.278;20.972;2023-04-03T13:48:52;10.40;42.00
76967;DHT22;65904;52.278;20.972;2023-04-03T13:51:39;10.40;42.20
76967;DHT22;65904;52.278;20.972;2023-04-03T13:54:31;10.40;43.10
76967;DHT22;65904;52.278;20.972;2023-04-03T13:57:18;12.00;43.10
76967;DHT22;65904;52.278;20.972;2023-04-03T14:00:20;13.80;35.20
76967;DHT22;65904;52.278;20.972;2023-04-03T14:03:14;13.50;35.50
76967;DHT22;65904;52.278;20.972;2023-04-03T14:06:05;12.40;35.30
76967;DHT22;65904;52.278;20.972;2023-04-03T14:08:52;11.30;38.70
76967;DHT22;65904;52.278;20.972;2023-04-03T14:11:39;10.50;40.40
76967;DHT22;65904;52.278;20.972;2023-04-03T14:14:29;9.40;45.50
76967;DHT22;65904;52.278;20.972;2023-04-03T14:17:18;9.00;48.60
76967;DHT22;65904;52.278;20.972;2023-04-03T14:20:06;8.80;47.80
76967;DHT22;65904;52.278;20.972;2023-04-03T14:22:52;8.50;49.70
76967;DHT22;65904;52.278;20.972;2023-04-03T14:25:39;8.10;49.80
76967;DHT22;65904;52.278;20.972;2023-04-03T14:28:26;7.90;52.80
76967;DHT22;65904;52.278;20.972;2023-04-03T14:31:14;7.60;53.00
76967;DHT22;65904;52.278;20.972;2023-04-03T14:34:00;7.50;52.40
76967;DHT22;65904;52.278;20.972;2023-04-03T14:36:47;7.60;54.00
76967;DHT22;65904;52.278;20.972;2023-04-03T14:39:32;7.60;53.80
76967;DHT22;65904;52.278;20.972;2023-04-03T14:42:20;7.30;53.90
76967;DHT22;65904;52.278;20.972;2023-04-03T14:45:08;7.10;57.10
76967;DHT22;65904;52.278;20.972;2023-04-03T14:47:56;6.90;58.70
76967;DHT22;65904;52.278;20.972;2023-04-03T14:50:42;6.70;59.60
76967;DHT22;65904;52.278;20.972;2023-04-03T14:53:28;6.50;64.10
76967;DHT22;65904;52.278;20.972;2023-04-03T14:56:19;6.30;66.30
76967;DHT22;65904;52.278;20.972;2023-04-03T14:59:11;6.30;65.60
76967;DHT22;65904;52.278;20.972;2023-04-03T15:01:59;6.30;64.10
76967;DHT22;65904;52.278;20.972;2023-04-03T15:04:45;6.40;65.70
76967;DHT22;65904;52.278;20.972;2023-04-03T15:07:34;6.50;64.50
76967;DHT22;65904;52.278;20.972;2023-04-03T15:10:23;6.50;66.00
76967;DHT22;65904;52.278;20.972;2023-04-03T15:13:10;6.60;63.80
76967;DHT22;65904;52.278;20.972;2023-04-03T15:15:58;6.50;62.90
76967;DHT22;65904;52.278;20.972;2023-04-03T15:18:46;6.40;64.90
76967;DHT22;65904;52.278;20.972;2023-04-03T15:21:33;6.30;68.70
76967;DHT22;65904;52.278;20.972;2023-04-03T15:24:19;6.20;68.50
76967;DHT22;65904;52.278;20.972;2023-04-03T15:27:06;6.10;70.00
76967;DHT22;65904;52.278;20.972;2023-04-03T15:29:51;6.20;72.40
76967;DHT22;65904;52.278;20.972;2023-04-03T15:32:38;6.10;70.90
76967;DHT22;65904;52.278;20.972;2023-04-03T15:35:25;6.00;70.00
76967;DHT22;65904;52.278;20.972;2023-04-03T15:38:11;5.90;71.70
76967;DHT22;65904;52.278;20.972;2023-04-03T15:40:58;5.80;72.90
76967;DHT22;65904;52.278;20.972;2023-04-03T15:43:44;5.60;72.00
76967;DHT22;65904;52.278;20.972;2023-04-03T15:46:30;5.60;73.70
76967;DHT22;65904;52.278;20.972;2023-04-03T15:49:18;5.60;76.10
76967;DHT22;65904;52.278;20.972;2023-04-03T15:52:06;5.60;76.70
76967;DHT22;65904;52.278;20.972;2023-04-03T15:54:52;5.60;78.90
76967;DHT22;65904;52.278;20.972;2023-04-03T15:57:38;5.60;78.40
76967;DHT22;65904;52.278;20.972;2023-04-03T16:00:25;5.60;80.10
76967;DHT22;65904;52.278;20.972;2023-04-03T16:03:15;5.60;84.40
76967;DHT22;65904;52.278;20.972;2023-04-03T16:06:02;5.60;81.50
76967;DHT22;65904;52.278;20.972;2023-04-03T16:08:49;5.60;80.50
76967;DHT22;65904;52.278;20.972;2023-04-03T16:11:36;5.50;81.00
76967;DHT22;65904;52.278;20.972;2023-04-03T16:14:24;5.40;79.20
76967;DHT22;65904;52.278;20.972;2023-04-03T16:17:10;5.40;80.00
76967;DHT22;65904;52.278;20.972;2023-04-03T16:19:56;5.40;81.00
76967;DHT22;65904;52.278;20.972;2023-04-03T16:22:43;5.30;83.30
76967;DHT22;65904;52.278;20.972;2023-04-03T16:25:30;5.30;81.80
76967;DHT22;65904;52.278;20.972;2023-04-03T16:28:17;5.30;83.70
76967;DHT22;65904;52.278;20.972;2023-04-03T16:31:05;5.20;82.80
76967;DHT22;65904;52.278;20.972;2023-04-03T16:33:51;5.10;84.00
76967;DHT22;65904;52.278;20.972;2023-04-03T16:36:37;5.00;83.20
76967;DHT22;65904;52.278;20.972;2023-04-03T16:39:24;4.90;82.40
76967;DHT22;65904;52.278;20.972;2023-04-03T16:42:12;4.90;83.80
76967;DHT22;65904;52.278;20.972;2023-04-03T16:44:58;4.80;83.90
76967;DHT22;65904;52.278;20.972;2023-04-03T16:47:47;4.80;85.70
76967;DHT22;65904;52.278;20.972;2023-04-03T16:50:33;4.80;84.40
76967;DHT22;65904;52.278;20.972;2023-04-03T16:53:19;4.70;85.10
76967;DHT22;65904;52.278;20.972;2023-04-03T16:56:06;4.70;86.60
76967;DHT22;65904;52.278;20.972;2023-04-03T16:58:53;4.60;87.30
76967;DHT22;65904;52.278;20.972;2023-04-03T17:01:40;4.60;88.40
76967;DHT22;65904;52.278;20.972;2023-04-03T17:04:26;4.50;88.10
76967;DHT22;65904;52.278;20.972;2023-04-03T17:07:13;4.50;88.20
76967;DHT22;65904;52.278;20.972;2023-04-03T17:09:59;4.50;89.10
76967;DHT22;65904;52.278;20.972;2023-04-03T17:12:46;4.50;88.80
76967;DHT22;65904;52.278;20.972;2023-04-03T17:15:33;4.50;88.20
76967;DHT22;65904;52.278;20.972;2023-04-03T17:18:19;4.40;88.20
76967;DHT22;65904;52.278;20.972;2023-04-03T17:21:05;4.40;89.50
76967;DHT22;65904;52.278;20.972;2023-04-03T17:23:54;4.40;89.40
76967;DHT22;65904;52.278;20.972;2023-04-03T17:26:42;4.30;89.70
76967;DHT22;65904;52.278;20.972;2023-04-03T17:29:28;4.30;89.90
76967;DHT22;65904;52.278;20.972;2023-04-03T17:32:16;4.20;90.00
76967;DHT22;65904;52.278;20.972;2023-04-03T17:35:02;4.20;90.10
76967;DHT22;65904;52.278;20.972;2023-04-03T17:37:49;4.20;90.50
76967;DHT22;65904;52.278;20.972;2023-04-03T17:40:35;4.30;89.50
76967;DHT22;65904;52.278;20.972;2023-04-03T17:43:21;4.20;88.30
76967;DHT22;65904;52.278;20.972;2023-04-03T17:46:09;4.10;88.50
76967;DHT22;65904;52.278;20.972;2023-04-03T17:48:57;4.10;88.20
76967;DHT22;65904;52.278;20.972;2023-04-03T17:51:44;4.20;88.30
76967;DHT22;65904;52.278;20.972;2023-04-03T17:54:30;4.10;89.20
76967;DHT22;65904;52.278;20.972;2023-04-03T17:57:16;4.10;90.00